sensor_id;sensor_type;location;lat;lon;timestamp;temperature;humidity
51825;DHT22;37879;52.986;6.282;2022-12-18T00:01:22;-3.20;99.90
51825;DHT22;37879;52.986;6.282;2022-12-18T00:03:48;-3.30;99.90
51825;DHT22;37879;52.986;6.282;2022-12-18T00:06:15;-3.30;99.90
51825;DHT22;37879;52.986;6.282;2022-12-18T00:08:41;-3.00;99.90
51825;DHT22;37879;52.986;6.282;2022-12-18T00:11:10;-3.20;99.90
51825;DHT22;37879;52.986;6.282;2022-12-18T00:13:36;-3.40;99.90
51825;DHT22;37879;52.986;6.282;2022-12-18T00:16:09;-3.20;99.90
51825;DHT22;37879;52.986;6.282;2022-12-18T00:18:34;-3.30;99.90
51825;DHT22;37879;52.986;6.282;2022-12-18T00:21:02;-1.20;99.90
51825;DHT22;37879;52.986;6.282;2022-12-18T00:23:29;-3.30;99.90
51825;DHT22;37879;52.986;6.282;2022-12-18T00:25:58;-3.40;99.90
51825;DHT22;37879;52.986;6.282;2022-12-18T00:28:24;-1.80;99.90
51825;DHT22;37879;52.986;6.282;2022-12-18T00:30:49;-1.80;99.90
51825;DHT22;37879;52.986;6.282;2022-12-18T00:33:17;-3.40;99.90
51825;DHT22;37879;52.986;6.282;2022-12-18T00:35:43;-3.50;99.90
51825;DHT22;37879;52.986;6.282;2022-12-18T00:38:08;-3.40;99.90
51825;DHT22;37879;52.986;6.282;2022-12-18T00:40:34;-3.40;99.90
51825;DHT22;37879;52.986;6.282;2022-12-18T00:43:00;-3.40;99.90
51825;DHT22;37879;52.986;6.282;2022-12-18T00:45:27;-3.70;99.90
51825;DHT22;37879;52.986;6.282;2022-12-18T00:47:54;-3.40;99.90
51825;DHT22;37879;52.986;6.282;2022-12-18T00:50:21;-4.00;99.90
51825;DHT22;37879;52.986;6.282;2022-12-18T00:52:47;-3.40;99.90
51825;DHT22;37879;52.986;6.282;2022-12-18T00:55:13;-3.40;99.90
51825;DHT22;37879;52.986;6.282;2022-12-18T00:57:39;-3.70;99.90
51825;DHT22;37879;52.986;6.282;2022-12-18T01:00:07;-3.60;99.90
51825;DHT22;37879;52.986;6.282;2022-12-18T01:02:33;-3.60;99.90
51825;DHT22;37879;52.986;6.282;2022-12-18T01:04:59;-3.70;99.90
51825;DHT22;37879;52.986;6.282;2022-12-18T01:07:25;-3.60;99.90
51825;DHT22;37879;52.986;6.282;2022-12-18T01:09:50;-3.70;99.90
51825;DHT22;37879;52.986;6.282;2022-12-18T01:12:16;-3.80;99.90
51825;DHT22;37879;52.986;6.282;2022-12-18T01:14:42;-3.80;99.90
51825;DHT22;37879;52.986;6.282;2022-12-18T01:17:07;-3.90;99.90
51825;DHT22;37879;52.986;6.282;2022-12-18T01:19:33;-3.80;99.90
51825;DHT22;37879;52.986;6.282;2022-12-18T01:21:59;-3.90;99.90
51825;DHT22;37879;52.986;6.282;2022-12-18T01:24:25;-4.10;99.90
51825;DHT22;37879;52.986;6.282;2022-12-18T01:26:50;-4.60;99.90
51825;DHT22;37879;52.986;6.282;2022-12-18T01:29:16;-4.00;99.90
51825;DHT22;37879;52.986;6.282;2022-12-18T01:31:42;-4.20;99.90
51825;DHT22;37879;52.986;6.282;2022-12-18T01:34:08;-4.20;99.90
51825;DHT22;37879;52.986;6.282;2022-12-18T01:36:36;-4.20;99.90
51825;DHT22;37879;52.986;6.282;2022-12-18T01:39:05;-4.20;99.90
51825;DHT22;37879;52.986;6.282;2022-12-18T01:41:32;-4.20;99.90
51825;DHT22;37879;52.986;6.282;2022-12-18T01:49:52;-4.40;99.90
51825;DHT22;37879;52.986;6.282;2022-12-18T01:52:19;-4.50;99.90
51825;DHT22;37879;52.986;6.282;2022-12-18T01:54:47;-4.30;99.90
51825;DHT22;37879;52.986;6.282;2022-12-18T01:57:14;-4.60;99.90
51825;DHT22;37879;52.986;6.282;2022-12-18T01:59:41;-4.50;99.90
51825;DHT22;37879;52.986;6.282;2022-12-18T02:02:08;-4.60;99.90
51825;DHT22;37879;52.986;6.282;2022-12-18T02:04:34;-4.40;99.90
51825;DHT22;37879;52.986;6.282;2022-12-18T02:07:24;-4.60;99.90
51825;DHT22;37879;52.986;6.282;2022-12-18T02:10:00;-4.70;99.90
51825;DHT22;37879;52.986;6.282;2022-12-18T02:12:48;-4.60;99.90
51825;DHT22;37879;52.986;6.282;2022-12-18T02:18:05;-4.50;99.90
51825;DHT22;37879;52.986;6.282;2022-12-18T02:20:45;-3.90;99.90
51825;DHT22;37879;52.986;6.282;2022-12-18T02:23:36;-4.50;99.90
51825;DHT22;37879;52.986;6.282;2022-12-18T02:31:29;-4.60;99.90
51825;DHT22;37879;52.986;6.282;2022-12-18T02:33:59;-4.50;99.90
51825;DHT22;37879;52.986;6.282;2022-12-18T02:36:27;-4.40;99.90
51825;DHT22;37879;52.986;6.282;2022-12-18T02:38:54;-4.20;99.90
51825;DHT22;37879;52.986;6.282;2022-12-18T02:41:24;-4.60;99.90
51825;DHT22;37879;52.986;6.282;2022-12-18T02:43:58;-4.50;99.90
51825;DHT22;37879;52.986;6.282;2022-12-18T02:46:33;-4.60;99.90
51825;DHT22;37879;52.986;6.282;2022-12-18T02:49:12;-4.80;99.90
51825;DHT22;37879;52.986;6.282;2022-12-18T02:51:50;-2.50;99.90
51825;DHT22;37879;52.986;6.282;2022-12-18T02:54:41;-4.60;99.90
51825;DHT22;37879;52.986;6.282;2022-12-18T03:00:16;-4.80;99.90
51825;DHT22;37879;52.986;6.282;2022-12-18T03:02:48;-4.90;99.90
51825;DHT22;37879;52.986;6.282;2022-12-18T03:05:21;-5.00;99.90
51825;DHT22;37879;52.986;6.282;2022-12-18T03:08:06;-4.80;99.90
51825;DHT22;37879;52.986;6.282;2022-12-18T03:10:35;-5.80;99.90
51825;DHT22;37879;52.986;6.282;2022-12-18T03:13:07;-5.00;99.90
51825;DHT22;37879;52.986;6.282;2022-12-18T03:15:39;-5.00;99.90
51825;DHT22;37879;52.986;6.282;2022-12-18T03:18:19;-5.20;99.90
51825;DHT22;37879;52.986;6.282;2022-12-18T03:20:49;-5.10;99.90
51825;DHT22;37879;52.986;6.282;2022-12-18T03:23:21;-5.10;99.90
51825;DHT22;37879;52.986;6.282;2022-12-18T03:25:49;-5.00;99.90
51825;DHT22;37879;52.986;6.282;2022-12-18T03:28:20;-5.20;99.90
51825;DHT22;37879;52.986;6.282;2022-12-18T03:30:49;-4.90;99.90
51825;DHT22;37879;52.986;6.282;2022-12-18T03:33:44;-3.70;99.90
51825;DHT22;37879;52.986;6.282;2022-12-18T03:36:11;-4.80;99.90
51825;DHT22;37879;52.986;6.282;2022-12-18T03:38:37;-5.20;99.90
51825;DHT22;37879;52.986;6.282;2022-12-18T03:43:49;-3.90;99.90
51825;DHT22;37879;52.986;6.282;2022-12-18T03:46:39;-5.30;99.90
51825;DHT22;37879;52.986;6.282;2022-12-18T03:52:26;-5.30;99.90
51825;DHT22;37879;52.986;6.282;2022-12-18T03:54:54;-5.30;99.90
51825;DHT22;37879;52.986;6.282;2022-12-18T03:57:25;-5.50;99.90
51825;DHT22;37879;52.986;6.282;2022-12-18T03:59:56;-5.50;99.90
51825;DHT22;37879;52.986;6.282;2022-12-18T04:02:23;-5.50;99.90
51825;DHT22;37879;52.986;6.282;2022-12-18T04:04:52;-5.40;99.90
51825;DHT22;37879;52.986;6.282;2022-12-18T04:07:20;-5.60;99.90
51825;DHT22;37879;52.986;6.282;2022-12-18T04:09:47;-3.70;99.90
51825;DHT22;37879;52.986;6.282;2022-12-18T04:12:14;-5.70;99.90
51825;DHT22;37879;52.986;6.282;2022-12-18T04:14:39;-4.80;99.90
51825;DHT22;37879;52.986;6.282;2022-12-18T04:17:05;-5.60;99.90
51825;DHT22;37879;52.986;6.282;2022-12-18T04:19:31;-5.50;99.90
51825;DHT22;37879;52.986;6.282;2022-12-18T04:21:56;-5.70;99.90
51825;DHT22;37879;52.986;6.282;2022-12-18T04:24:22;-5.60;99.90
51825;DHT22;37879;52.986;6.282;2022-12-18T04:26:48;-3.10;99.90
51825;DHT22;37879;52.986;6.282;2022-12-18T04:29:13;-5.70;99.90
51825;DHT22;37879;52.986;6.282;2022-12-18T04:31:39;-5.70;99.90
51825;DHT22;37879;52.986;6.282;2022-12-18T04:34:05;-5.70;99.90
51825;DHT22;37879;52.986;6.282;2022-12-18T04:36:30;-5.70;99.90
51825;DHT22;37879;52.986;6.282;2022-12-18T04:38:56;-4.20;99.90
51825;DHT22;37879;52.986;6.282;2022-12-18T04:41:22;-5.80;99.90
51825;DHT22;37879;52.986;6.282;2022-12-18T04:43:47;-5.60;99.90
51825;DHT22;37879;52.986;6.282;2022-12-18T04:46:13;-4.00;99.90
51825;DHT22;37879;52.986;6.282;2022-12-18T04:48:39;-5.80;99.90
51825;DHT22;37879;52.986;6.282;2022-12-18T04:51:06;-5.80;99.90
51825;DHT22;37879;52.986;6.282;2022-12-18T04:53:32;-5.70;99.90
51825;DHT22;37879;52.986;6.282;2022-12-18T04:56:10;-5.60;99.90
51825;DHT22;37879;52.986;6.282;2022-12-18T04:58:36;-6.00;99.90
51825;DHT22;37879;52.986;6.282;2022-12-18T05:01:03;-5.60;99.90
51825;DHT22;37879;52.986;6.282;2022-12-18T05:03:29;-5.80;99.90
51825;DHT22;37879;52.986;6.282;2022-12-18T05:05:55;-5.70;99.90
51825;DHT22;37879;52.986;6.282;2022-12-18T05:08:21;-5.70;99.90
51825;DHT22;37879;52.986;6.282;2022-12-18T05:10:46;-5.90;99.90
51825;DHT22;37879;52.986;6.282;2022-12-18T05:13:12;-4.10;99.90
51825;DHT22;37879;52.986;6.282;2022-12-18T05:15:38;-4.60;99.90
51825;DHT22;37879;52.986;6.282;2022-12-18T05:18:04;-5.80;99.90
51825;DHT22;37879;52.986;6.282;2022-12-18T05:20:30;-5.70;99.90
51825;DHT22;37879;52.986;6.282;2022-12-18T05:22:56;-6.00;99.90
51825;DHT22;37879;52.986;6.282;2022-12-18T05:25:22;-6.00;99.90
51825;DHT22;37879;52.986;6.282;2022-12-18T05:27:48;-5.90;99.90
51825;DHT22;37879;52.986;6.282;2022-12-18T05:30:14;-5.90;99.90
51825;DHT22;37879;52.986;6.282;2022-12-18T05:32:41;-6.00;99.90
51825;DHT22;37879;52.986;6.282;2022-12-18T05:35:08;-5.70;99.90
51825;DHT22;37879;52.986;6.282;2022-12-18T05:37:35;-6.00;99.90
51825;DHT22;37879;52.986;6.282;2022-12-18T05:40:04;-5.80;99.90
51825;DHT22;37879;52.986;6.282;2022-12-18T05:42:30;-5.70;99.90
51825;DHT22;37879;52.986;6.282;2022-12-18T05:44:56;-6.00;99.90
51825;DHT22;37879;52.986;6.282;2022-12-18T05:47:22;-4.40;99.90
51825;DHT22;37879;52.986;6.282;2022-12-18T05:49:47;-4.00;99.90
51825;DHT22;37879;52.986;6.282;2022-12-18T05:52:13;-3.60;99.90
51825;DHT22;37879;52.986;6.282;2022-12-18T05:54:39;-3.90;99.90
51825;DHT22;37879;52.986;6.282;2022-12-18T05:57:05;-6.00;99.90
51825;DHT22;37879;52.986;6.282;2022-12-18T05:59:30;-6.30;99.90
51825;DHT22;37879;52.986;6.282;2022-12-18T06:01:56;-4.70;99.90
51825;DHT22;37879;52.986;6.282;2022-12-18T06:04:23;-6.30;99.90
51825;DHT22;37879;52.986;6.282;2022-12-18T06:06:48;-6.20;99.90
51825;DHT22;37879;52.986;6.282;2022-12-18T06:09:14;-6.20;99.90
51825;DHT22;37879;52.986;6.282;2022-12-18T06:11:40;-6.00;99.90
51825;DHT22;37879;52.986;6.282;2022-12-18T06:14:06;-6.20;99.90
51825;DHT22;37879;52.986;6.282;2022-12-18T06:16:32;-6.40;99.90
51825;DHT22;37879;52.986;6.282;2022-12-18T06:18:58;-6.30;99.90
51825;DHT22;37879;52.986;6.282;2022-12-18T06:21:25;-6.40;99.90
51825;DHT22;37879;52.986;6.282;2022-12-18T06:23:51;-6.50;99.90
51825;DHT22;37879;52.986;6.282;2022-12-18T06:26:17;-4.60;99.90
51825;DHT22;37879;52.986;6.282;2022-12-18T06:28:43;-7.40;99.90
51825;DHT22;37879;52.986;6.282;2022-12-18T06:31:09;-6.60;99.90
51825;DHT22;37879;52.986;6.282;2022-12-18T06:36:06;-6.30;99.90
51825;DHT22;37879;52.986;6.282;2022-12-18T06:38:34;-6.40;99.90
51825;DHT22;37879;52.986;6.282;2022-12-18T06:41:00;-3.30;99.90
51825;DHT22;37879;52.986;6.282;2022-12-18T06:43:26;-6.20;99.90
51825;DHT22;37879;52.986;6.282;2022-12-18T06:45:58;-6.40;99.90
51825;DHT22;37879;52.986;6.282;2022-12-18T06:48:24;-6.40;99.90
51825;DHT22;37879;52.986;6.282;2022-12-18T06:50:50;-6.20;99.90
51825;DHT22;37879;52.986;6.282;2022-12-18T06:53:16;-6.30;99.90
51825;DHT22;37879;52.986;6.282;2022-12-18T06:55:41;-6.40;99.90
51825;DHT22;37879;52.986;6.282;2022-12-18T06:58:07;-6.30;99.90
51825;DHT22;37879;52.986;6.282;2022-12-18T07:00:33;-6.10;99.90
51825;DHT22;37879;52.986;6.282;2022-12-18T07:02:58;-6.40;99.90
51825;DHT22;37879;52.986;6.282;2022-12-18T07:05:24;-4.70;99.90
51825;DHT22;37879;52.986;6.282;2022-12-18T07:07:50;-6.20;99.90
51825;DHT22;37879;52.986;6.282;2022-12-18T07:10:15;-6.40;99.90
51825;DHT22;37879;52.986;6.282;2022-12-18T07:12:41;-6.30;99.90
51825;DHT22;37879;52.986;6.282;2022-12-18T07:15:07;-6.30;99.90
51825;DHT22;37879;52.986;6.282;2022-12-18T07:17:33;-8.10;99.90
51825;DHT22;37879;52.986;6.282;2022-12-18T07:19:58;-6.40;99.90
51825;DHT22;37879;52.986;6.282;2022-12-18T07:22:27;-6.30;99.90
51825;DHT22;37879;52.986;6.282;2022-12-18T07:24:53;-6.60;99.90
51825;DHT22;37879;52.986;6.282;2022-12-18T07:27:19;-6.30;99.90
51825;DHT22;37879;52.986;6.282;2022-12-18T07:29:44;-6.80;99.90
51825;DHT22;37879;52.986;6.282;2022-12-18T07:32:10;-6.20;99.90
51825;DHT22;37879;52.986;6.282;2022-12-18T07:34:36;-5.90;99.90
51825;DHT22;37879;52.986;6.282;2022-12-18T07:37:02;-4.30;99.90
51825;DHT22;37879;52.986;6.282;2022-12-18T07:41:54;-6.00;99.90
51825;DHT22;37879;52.986;6.282;2022-12-18T07:44:37;-5.90;99.90
51825;DHT22;37879;52.986;6.282;2022-12-18T07:47:04;-5.80;99.90
51825;DHT22;37879;52.986;6.282;2022-12-18T07:49:30;-6.80;99.90
51825;DHT22;37879;52.986;6.282;2022-12-18T07:51:56;-5.80;99.90
51825;DHT22;37879;52.986;6.282;2022-12-18T07:54:23;-6.00;99.90
51825;DHT22;37879;52.986;6.282;2022-12-18T07:56:49;-3.20;99.90
51825;DHT22;37879;52.986;6.282;2022-12-18T07:59:15;-5.70;99.90
51825;DHT22;37879;52.986;6.282;2022-12-18T08:01:40;-5.70;99.90
51825;DHT22;37879;52.986;6.282;2022-12-18T08:04:06;-5.40;99.90
51825;DHT22;37879;52.986;6.282;2022-12-18T08:06:32;-5.80;99.90
51825;DHT22;37879;52.986;6.282;2022-12-18T08:08:57;-5.60;99.90
51825;DHT22;37879;52.986;6.282;2022-12-18T08:11:25;-5.80;99.90
51825;DHT22;37879;52.986;6.282;2022-12-18T08:13:52;-5.30;99.90
51825;DHT22;37879;52.986;6.282;2022-12-18T08:16:18;-4.70;99.90
51825;DHT22;37879;52.986;6.282;2022-12-18T08:18:43;-3.50;99.90
51825;DHT22;37879;52.986;6.282;2022-12-18T08:21:15;-5.20;99.90
51825;DHT22;37879;52.986;6.282;2022-12-18T08:23:42;-5.20;99.90
51825;DHT22;37879;52.986;6.282;2022-12-18T08:26:07;-5.20;99.90
51825;DHT22;37879;52.986;6.282;2022-12-18T08:28:34;-4.40;99.90
51825;DHT22;37879;52.986;6.282;2022-12-18T08:31:00;-4.80;99.90
51825;DHT22;37879;52.986;6.282;2022-12-18T08:33:26;-5.20;99.90
51825;DHT22;37879;52.986;6.282;2022-12-18T08:35:52;-5.20;99.90
51825;DHT22;37879;52.986;6.282;2022-12-18T08:38:18;-3.10;99.90
51825;DHT22;37879;52.986;6.282;2022-12-18T08:40:43;-4.50;99.90
51825;DHT22;37879;52.986;6.282;2022-12-18T08:43:10;-4.90;99.90
51825;DHT22;37879;52.986;6.282;2022-12-18T08:45:54;-4.90;99.90
51825;DHT22;37879;52.986;6.282;2022-12-18T08:48:20;-4.90;99.90
51825;DHT22;37879;52.986;6.282;2022-12-18T08:50:59;-4.80;99.90
51825;DHT22;37879;52.986;6.282;2022-12-18T08:53:25;-5.00;99.90
51825;DHT22;37879;52.986;6.282;2022-12-18T08:55:52;-4.80;99.90
51825;DHT22;37879;52.986;6.282;2022-12-18T08:58:18;-3.80;99.90
51825;DHT22;37879;52.986;6.282;2022-12-18T09:00:43;-4.90;99.90
51825;DHT22;37879;52.986;6.282;2022-12-18T09:03:16;-4.60;99.90
51825;DHT22;37879;52.986;6.282;2022-12-18T09:05:43;-4.70;99.90
51825;DHT22;37879;52.986;6.282;2022-12-18T09:08:09;-5.20;99.90
51825;DHT22;37879;52.986;6.282;2022-12-18T09:10:42;-4.80;99.90
51825;DHT22;37879;52.986;6.282;2022-12-18T09:13:10;-4.50;99.90
51825;DHT22;37879;52.986;6.282;2022-12-18T09:15:50;-2.70;99.90
51825;DHT22;37879;52.986;6.282;2022-12-18T09:18:18;-4.50;99.90
51825;DHT22;37879;52.986;6.282;2022-12-18T09:20:44;-3.20;99.90
51825;DHT22;37879;52.986;6.282;2022-12-18T09:23:10;-4.60;99.90
51825;DHT22;37879;52.986;6.282;2022-12-18T09:25:37;-4.30;99.90
51825;DHT22;37879;52.986;6.282;2022-12-18T09:28:14;-4.40;99.90
51825;DHT22;37879;52.986;6.282;2022-12-18T09:30:43;-4.60;99.90
51825;DHT22;37879;52.986;6.282;2022-12-18T09:33:08;-4.40;99.90
51825;DHT22;37879;52.986;6.282;2022-12-18T09:35:38;-4.30;99.90
51825;DHT22;37879;52.986;6.282;2022-12-18T09:38:04;-4.30;99.90
51825;DHT22;37879;52.986;6.282;2022-12-18T09:40:35;-2.10;99.90
51825;DHT22;37879;52.986;6.282;2022-12-18T09:43:04;-4.10;99.90
51825;DHT22;37879;52.986;6.282;2022-12-18T09:45:43;-4.20;99.90
51825;DHT22;37879;52.986;6.282;2022-12-18T09:48:28;-4.00;99.90
51825;DHT22;37879;52.986;6.282;2022-12-18T09:51:02;-4.00;99.90
51825;DHT22;37879;52.986;6.282;2022-12-18T09:53:31;-4.00;99.90
51825;DHT22;37879;52.986;6.282;2022-12-18T09:56:00;-4.00;99.90
51825;DHT22;37879;52.986;6.282;2022-12-18T10:01:10;-2.20;99.90
51825;DHT22;37879;52.986;6.282;2022-12-18T10:03:37;-2.20;99.90
51825;DHT22;37879;52.986;6.282;2022-12-18T10:06:58;-3.90;99.90
51825;DHT22;37879;52.986;6.282;2022-12-18T10:12:08;-3.90;99.90
51825;DHT22;37879;52.986;6.282;2022-12-18T10:14:55;-3.80;99.90
51825;DHT22;37879;52.986;6.282;2022-12-18T10:23:21;-3.90;99.90
51825;DHT22;37879;52.986;6.282;2022-12-18T10:26:05;-3.70;99.90
51825;DHT22;37879;52.986;6.282;2022-12-18T10:28:36;-3.70;99.90
51825;DHT22;37879;52.986;6.282;2022-12-18T10:31:30;-3.80;99.90
51825;DHT22;37879;52.986;6.282;2022-12-18T10:33:57;-3.70;99.90
51825;DHT22;37879;52.986;6.282;2022-12-18T10:36:24;-3.70;99.90
51825;DHT22;37879;52.986;6.282;2022-12-18T10:38:53;-2.70;99.90
51825;DHT22;37879;52.986;6.282;2022-12-18T10:43:46;-3.60;99.90
51825;DHT22;37879;52.986;6.282;2022-12-18T10:46:17;-3.20;99.90
51825;DHT22;37879;52.986;6.282;2022-12-18T10:51:33;-3.10;99.90
51825;DHT22;37879;52.986;6.282;2022-12-18T10:54:00;-3.30;99.90
51825;DHT22;37879;52.986;6.282;2022-12-18T10:56:28;-3.60;99.90
51825;DHT22;37879;52.986;6.282;2022-12-18T10:59:03;-3.10;99.90
51825;DHT22;37879;52.986;6.282;2022-12-18T11:04:20;-2.80;99.90
51825;DHT22;37879;52.986;6.282;2022-12-18T11:07:12;-3.00;99.90
51825;DHT22;37879;52.986;6.282;2022-12-18T11:09:39;-2.70;99.90
51825;DHT22;37879;52.986;6.282;2022-12-18T11:12:14;-2.90;99.90
51825;DHT22;37879;52.986;6.282;2022-12-18T11:14:54;-2.60;99.90
51825;DHT22;37879;52.986;6.282;2022-12-18T11:20:32;-2.70;99.90
51825;DHT22;37879;52.986;6.282;2022-12-18T11:23:12;-2.60;99.90
51825;DHT22;37879;52.986;6.282;2022-12-18T11:25:39;-2.60;99.90
51825;DHT22;37879;52.986;6.282;2022-12-18T11:28:29;-0.80;99.90
51825;DHT22;37879;52.986;6.282;2022-12-18T11:36:38;-2.10;99.90
51825;DHT22;37879;52.986;6.282;2022-12-18T11:39:36;-2.30;99.90
51825;DHT22;37879;52.986;6.282;2022-12-18T11:42:17;-2.30;99.90
51825;DHT22;37879;52.986;6.282;2022-12-18T11:47:41;-2.20;99.90
51825;DHT22;37879;52.986;6.282;2022-12-18T11:50:20;-0.90;99.90
51825;DHT22;37879;52.986;6.282;2022-12-18T11:52:47;-0.80;99.90
51825;DHT22;37879;52.986;6.282;2022-12-18T11:55:16;-2.10;99.90
51825;DHT22;37879;52.986;6.282;2022-12-18T11:57:55;-2.10;99.90
51825;DHT22;37879;52.986;6.282;2022-12-18T12:00:25;-2.10;99.90
51825;DHT22;37879;52.986;6.282;2022-12-18T12:16:17;-1.80;99.90
51825;DHT22;37879;52.986;6.282;2022-12-18T12:26:34;-1.80;99.90
51825;DHT22;37879;52.986;6.282;2022-12-18T12:40:39;-1.50;99.90
51825;DHT22;37879;52.986;6.282;2022-12-18T12:43:24;-1.60;99.90
51825;DHT22;37879;52.986;6.282;2022-12-18T12:45:55;-1.50;99.90
51825;DHT22;37879;52.986;6.282;2022-12-18T12:51:21;-1.50;99.90
51825;DHT22;37879;52.986;6.282;2022-12-18T12:53:47;-1.40;99.90
51825;DHT22;37879;52.986;6.282;2022-12-18T12:56:16;-1.30;99.90
51825;DHT22;37879;52.986;6.282;2022-12-18T12:58:55;-1.40;99.90
51825;DHT22;37879;52.986;6.282;2022-12-18T13:04:30;-1.30;99.90
51825;DHT22;37879;52.986;6.282;2022-12-18T13:07:23;-1.30;99.90
51825;DHT22;37879;52.986;6.282;2022-12-18T13:10:23;-1.30;99.90
51825;DHT22;37879;52.986;6.282;2022-12-18T13:13:00;-1.20;99.90
51825;DHT22;37879;52.986;6.282;2022-12-18T13:15:34;-1.20;99.90
51825;DHT22;37879;52.986;6.282;2022-12-18T13:18:23;-1.20;99.90
51825;DHT22;37879;52.986;6.282;2022-12-18T13:25:45;-0.10;99.90
51825;DHT22;37879;52.986;6.282;2022-12-18T13:28:16;-1.20;99.90
51825;DHT22;37879;52.986;6.282;2022-12-18T13:30:46;-2.00;99.90
51825;DHT22;37879;52.986;6.282;2022-12-18T13:43:45;-1.20;99.90
51825;DHT22;37879;52.986;6.282;2022-12-18T13:46:19;-1.20;99.90
51825;DHT22;37879;52.986;6.282;2022-12-18T13:48:55;-1.30;99.90
51825;DHT22;37879;52.986;6.282;2022-12-18T13:51:22;-1.20;99.90
51825;DHT22;37879;52.986;6.282;2022-12-18T13:53:58;-1.20;99.90
51825;DHT22;37879;52.986;6.282;2022-12-18T13:56:28;-1.20;99.90
51825;DHT22;37879;52.986;6.282;2022-12-18T13:59:20;0.80;99.90
51825;DHT22;37879;52.986;6.282;2022-12-18T14:01:58;-1.10;99.90
51825;DHT22;37879;52.986;6.282;2022-12-18T14:04:32;-1.10;99.90
51825;DHT22;37879;52.986;6.282;2022-12-18T14:07:12;-0.80;99.90
51825;DHT22;37879;52.986;6.282;2022-12-18T14:09:48;-1.10;99.90
51825;DHT22;37879;52.986;6.282;2022-12-18T14:12:21;-1.20;99.90
51825;DHT22;37879;52.986;6.282;2022-12-18T14:15:50;-1.20;99.90
51825;DHT22;37879;52.986;6.282;2022-12-18T14:18:22;-1.10;99.90
51825;DHT22;37879;52.986;6.282;2022-12-18T14:20:49;-1.20;99.90
51825;DHT22;37879;52.986;6.282;2022-12-18T14:23:30;-0.80;99.90
51825;DHT22;37879;52.986;6.282;2022-12-18T14:25:56;-1.20;99.90
51825;DHT22;37879;52.986;6.282;2022-12-18T14:28:22;-1.20;99.90
51825;DHT22;37879;52.986;6.282;2022-12-18T14:30:48;-1.20;99.90
51825;DHT22;37879;52.986;6.282;2022-12-18T14:33:20;-1.20;99.90
51825;DHT22;37879;52.986;6.282;2022-12-18T14:36:02;-1.20;99.90
51825;DHT22;37879;52.986;6.282;2022-12-18T14:38:37;-1.20;99.90
51825;DHT22;37879;52.986;6.282;2022-12-18T14:41:13;-1.20;99.90
51825;DHT22;37879;52.986;6.282;2022-12-18T14:43:45;-1.30;99.90
51825;DHT22;37879;52.986;6.282;2022-12-18T14:46:34;-1.30;99.90
51825;DHT22;37879;52.986;6.282;2022-12-18T14:51:52;-1.00;99.90
51825;DHT22;37879;52.986;6.282;2022-12-18T14:54:19;-1.30;99.90
51825;DHT22;37879;52.986;6.282;2022-12-18T14:57:20;-0.60;99.90
51825;DHT22;37879;52.986;6.282;2022-12-18T14:59:47;-1.40;99.90
51825;DHT22;37879;52.986;6.282;2022-12-18T15:02:24;-0.10;99.90
51825;DHT22;37879;52.986;6.282;2022-12-18T15:05:18;-0.80;99.90
51825;DHT22;37879;52.986;6.282;2022-12-18T15:07:50;-1.80;99.90
51825;DHT22;37879;52.986;6.282;2022-12-18T15:10:17;-1.50;99.90
51825;DHT22;37879;52.986;6.282;2022-12-18T15:18:12;-1.40;99.90
51825;DHT22;37879;52.986;6.282;2022-12-18T15:23:26;0.60;99.90
51825;DHT22;37879;52.986;6.282;2022-12-18T15:33:40;-1.50;99.90
51825;DHT22;37879;52.986;6.282;2022-12-18T15:36:12;-1.50;99.90
51825;DHT22;37879;52.986;6.282;2022-12-18T15:38:38;-1.50;99.90
51825;DHT22;37879;52.986;6.282;2022-12-18T15:41:19;-1.50;99.90
51825;DHT22;37879;52.986;6.282;2022-12-18T15:43:46;-2.10;99.90
51825;DHT22;37879;52.986;6.282;2022-12-18T15:46:23;-1.40;99.90
51825;DHT22;37879;52.986;6.282;2022-12-18T15:48:54;-1.50;99.90
51825;DHT22;37879;52.986;6.282;2022-12-18T15:51:29;-1.50;99.90
51825;DHT22;37879;52.986;6.282;2022-12-18T15:53:59;-0.50;99.90
51825;DHT22;37879;52.986;6.282;2022-12-18T15:56:25;-1.50;99.90
51825;DHT22;37879;52.986;6.282;2022-12-18T15:59:11;-1.60;99.90
51825;DHT22;37879;52.986;6.282;2022-12-18T16:01:38;-1.40;99.90
51825;DHT22;37879;52.986;6.282;2022-12-18T16:04:04;-1.60;99.90
51825;DHT22;37879;52.986;6.282;2022-12-18T16:06:30;-1.50;99.90
51825;DHT22;37879;52.986;6.282;2022-12-18T16:08:55;-1.60;99.90
51825;DHT22;37879;52.986;6.282;2022-12-18T16:11:22;-1.50;99.90
51825;DHT22;37879;52.986;6.282;2022-12-18T16:16:44;-1.60;99.90
51825;DHT22;37879;52.986;6.282;2022-12-18T16:19:10;-1.40;99.90
51825;DHT22;37879;52.986;6.282;2022-12-18T16:21:35;-1.50;99.90
51825;DHT22;37879;52.986;6.282;2022-12-18T16:24:01;-2.40;99.90
51825;DHT22;37879;52.986;6.282;2022-12-18T16:26:27;-1.50;99.90
51825;DHT22;37879;52.986;6.282;2022-12-18T16:28:52;-1.50;99.90
51825;DHT22;37879;52.986;6.282;2022-12-18T16:31:18;-1.50;99.90
51825;DHT22;37879;52.986;6.282;2022-12-18T16:33:44;-0.90;99.90
51825;DHT22;37879;52.986;6.282;2022-12-18T16:36:10;-0.60;99.90
51825;DHT22;37879;52.986;6.282;2022-12-18T16:38:35;-1.40;99.90
51825;DHT22;37879;52.986;6.282;2022-12-18T16:41:01;-1.50;99.90
51825;DHT22;37879;52.986;6.282;2022-12-18T16:43:46;-1.40;99.90
51825;DHT22;37879;52.986;6.282;2022-12-18T16:46:12;-1.40;99.90
51825;DHT22;37879;52.986;6.282;2022-12-18T16:48:37;-1.40;99.90
51825;DHT22;37879;52.986;6.282;2022-12-18T16:51:04;-1.40;99.90
51825;DHT22;37879;52.986;6.282;2022-12-18T16:53:31;-1.30;99.90
51825;DHT22;37879;52.986;6.282;2022-12-18T16:55:57;-1.40;99.90
51825;DHT22;37879;52.986;6.282;2022-12-18T16:58:23;0.80;99.90
51825;DHT22;37879;52.986;6.282;2022-12-18T17:00:49;0.00;99.90
51825;DHT22;37879;52.986;6.282;2022-12-18T17:03:14;-1.40;99.90
51825;DHT22;37879;52.986;6.282;2022-12-18T17:05:40;-1.10;99.90
51825;DHT22;37879;52.986;6.282;2022-12-18T17:08:06;-1.40;99.90
51825;DHT22;37879;52.986;6.282;2022-12-18T17:10:34;0.20;99.90
51825;DHT22;37879;52.986;6.282;2022-12-18T17:13:00;-1.40;99.90
51825;DHT22;37879;52.986;6.282;2022-12-18T17:15:26;-1.40;99.90
51825;DHT22;37879;52.986;6.282;2022-12-18T17:17:52;-1.40;99.90
51825;DHT22;37879;52.986;6.282;2022-12-18T17:20:17;-1.40;99.90
51825;DHT22;37879;52.986;6.282;2022-12-18T17:22:43;-1.40;99.90
51825;DHT22;37879;52.986;6.282;2022-12-18T17:25:09;-1.30;99.90
51825;DHT22;37879;52.986;6.282;2022-12-18T17:27:35;-1.30;99.90
51825;DHT22;37879;52.986;6.282;2022-12-18T17:30:01;-1.30;99.90
51825;DHT22;37879;52.986;6.282;2022-12-18T17:32:27;0.40;99.90
51825;DHT22;37879;52.986;6.282;2022-12-18T17:34:52;-1.30;99.90
51825;DHT22;37879;52.986;6.282;2022-12-18T17:37:18;-1.30;99.90
51825;DHT22;37879;52.986;6.282;2022-12-18T17:39:44;-1.20;99.90
51825;DHT22;37879;52.986;6.282;2022-12-18T17:42:10;0.50;99.90
51825;DHT22;37879;52.986;6.282;2022-12-18T17:44:36;0.60;99.90
51825;DHT22;37879;52.986;6.282;2022-12-18T17:47:02;0.40;99.90
51825;DHT22;37879;52.986;6.282;2022-12-18T17:49:27;0.90;99.90
51825;DHT22;37879;52.986;6.282;2022-12-18T17:51:53;-1.10;99.90
51825;DHT22;37879;52.986;6.282;2022-12-18T17:54:19;-1.10;99.90
51825;DHT22;37879;52.986;6.282;2022-12-18T17:56:45;-1.10;99.90
51825;DHT22;37879;52.986;6.282;2022-12-18T17:59:11;-1.10;99.90
51825;DHT22;37879;52.986;6.282;2022-12-18T18:01:37;-1.00;99.90
51825;DHT22;37879;52.986;6.282;2022-12-18T18:06:29;-1.10;99.90